sensor_id;sensor_type;location;lat;lon;timestamp;pressure;altitude;pressure_sealevel;temperature;humidity
51496;BME280;37572;52.094;4.870;2023-12-14T00:02:20;101031.91;;;10.09;62.01
51496;BME280;37572;52.094;4.870;2023-12-14T00:04:45;101034.59;;;10.09;61.88
51496;BME280;37572;52.094;4.870;2023-12-14T00:07:10;101031.91;;;10.09;61.88
51496;BME280;37572;52.094;4.870;2023-12-14T00:09:39;101042.56;;;10.09;61.95
51496;BME280;37572;52.094;4.870;2023-12-14T00:12:05;101051.09;;;10.12;61.85
51496;BME280;37572;52.094;4.870;2023-12-14T00:14:30;101054.91;;;10.10;61.85
51496;BME280;37572;52.094;4.870;2023-12-14T00:16:55;101057.72;;;10.08;61.87
51496;BME280;37572;52.094;4.870;2023-12-14T00:19:24;101066.50;;;10.09;62.10
51496;BME280;37572;52.094;4.870;2023-12-14T00:21:49;101068.19;;;10.10;61.89
51496;BME280;37572;52.094;4.870;2023-12-14T00:24:14;101075.34;;;10.09;61.75
51496;BME280;37572;52.094;4.870;2023-12-14T00:26:40;101067.53;;;10.08;61.75
51496;BME280;37572;52.094;4.870;2023-12-14T00:29:05;101084.47;;;10.07;61.67
51496;BME280;37572;52.094;4.870;2023-12-14T00:31:31;101088.94;;;10.06;61.79
51496;BME280;37572;52.094;4.870;2023-12-14T00:33:56;101094.28;;;10.06;61.67
51496;BME280;37572;52.094;4.870;2023-12-14T00:36:21;101091.59;;;10.06;61.53
51496;BME280;37572;52.094;4.870;2023-12-14T00:38:46;101097.91;;;10.05;61.55
51496;BME280;37572;52.094;4.870;2023-12-14T00:41:12;101093.56;;;10.04;61.69
51496;BME280;37572;52.094;4.870;2023-12-14T00:43:37;101109.53;;;10.04;61.47
51496;BME280;37572;52.094;4.870;2023-12-14T00:46:03;101120.34;;;10.03;61.46
51496;BME280;37572;52.094;4.870;2023-12-14T00:48:29;101129.28;;;10.02;61.57
51496;BME280;37572;52.094;4.870;2023-12-14T00:50:54;101134.75;;;10.00;61.65
51496;BME280;37572;52.094;4.870;2023-12-14T00:53:19;101133.78;;;10.01;61.62
51496;BME280;37572;52.094;4.870;2023-12-14T00:55:45;101142.59;;;10.02;61.42
51496;BME280;37572;52.094;4.870;2023-12-14T00:58:11;101141.91;;;9.99;61.54
51496;BME280;37572;52.094;4.870;2023-12-14T01:00:38;101150.56;;;10.02;61.35
51496;BME280;37572;52.094;4.870;2023-12-14T01:03:04;101143.56;;;10.00;61.54
51496;BME280;37572;52.094;4.870;2023-12-14T01:05:29;101153.38;;;10.00;61.25
51496;BME280;37572;52.094;4.870;2023-12-14T01:07:54;101156.88;;;10.00;61.21
51496;BME280;37572;52.094;4.870;2023-12-14T01:10:19;101157.00;;;9.99;61.35
51496;BME280;37572;52.094;4.870;2023-12-14T01:12:45;101161.50;;;9.98;61.39
51496;BME280;37572;52.094;4.870;2023-12-14T01:15:10;101172.00;;;10.00;61.23
51496;BME280;37572;52.094;4.870;2023-12-14T01:17:36;101178.16;;;10.00;61.12
51496;BME280;37572;52.094;4.870;2023-12-14T01:20:06;101192.31;;;10.01;61.23
51496;BME280;37572;52.094;4.870;2023-12-14T01:22:32;101188.66;;;10.02;61.05
51496;BME280;37572;52.094;4.870;2023-12-14T01:24:58;101191.31;;;10.02;61.01
51496;BME280;37572;52.094;4.870;2023-12-14T01:27:24;101191.19;;;10.04;61.05
51496;BME280;37572;52.094;4.870;2023-12-14T01:29:49;101194.66;;;10.04;60.96
51496;BME280;37572;52.094;4.870;2023-12-14T01:32:15;101189.34;;;10.04;60.89
51496;BME280;37572;52.094;4.870;2023-12-14T01:34:40;101203.50;;;10.05;60.95
51496;BME280;37572;52.094;4.870;2023-12-14T01:37:05;101201.69;;;10.05;61.12
51496;BME280;37572;52.094;4.870;2023-12-14T01:39:32;101202.38;;;10.07;60.92
51496;BME280;37572;52.094;4.870;2023-12-14T01:41:57;101212.03;;;10.08;61.04
51496;BME280;37572;52.094;4.870;2023-12-14T01:44:22;101219.06;;;10.09;61.02
51496;BME280;37572;52.094;4.870;2023-12-14T01:46:48;101217.38;;;10.08;60.93
51496;BME280;37572;52.094;4.870;2023-12-14T01:49:13;101223.50;;;10.09;61.19
51496;BME280;37572;52.094;4.870;2023-12-14T01:51:38;101225.22;;;10.10;60.87
51496;BME280;37572;52.094;4.870;2023-12-14T01:54:04;101229.56;;;10.11;60.95
51496;BME280;37572;52.094;4.870;2023-12-14T01:56:29;101240.03;;;10.12;60.83
51496;BME280;37572;52.094;4.870;2023-12-14T01:58:54;101242.88;;;10.11;60.93
51496;BME280;37572;52.094;4.870;2023-12-14T02:01:27;101253.50;;;10.11;60.95
51496;BME280;37572;52.094;4.870;2023-12-14T02:03:55;101260.50;;;10.12;60.91
51496;BME280;37572;52.094;4.870;2023-12-14T02:06:20;101263.28;;;10.10;61.06
51496;BME280;37572;52.094;4.870;2023-12-14T02:08:45;101281.91;;;10.10;60.97
51496;BME280;37572;52.094;4.870;2023-12-14T02:11:11;101287.09;;;10.12;61.09
51496;BME280;37572;52.094;4.870;2023-12-14T02:13:37;101285.28;;;10.12;61.05
51496;BME280;37572;52.094;4.870;2023-12-14T02:16:02;101285.13;;;10.14;61.13
51496;BME280;37572;52.094;4.870;2023-12-14T02:18:28;101287.78;;;10.14;60.91
51496;BME280;37572;52.094;4.870;2023-12-14T02:20:53;101291.19;;;10.16;60.88
51496;BME280;37572;52.094;4.870;2023-12-14T02:23:18;101295.50;;;10.17;61.02
51496;BME280;37572;52.094;4.870;2023-12-14T02:25:43;101292.00;;;10.16;60.94
51496;BME280;37572;52.094;4.870;2023-12-14T02:28:09;101299.72;;;10.19;60.98
51496;BME280;37572;52.094;4.870;2023-12-14T02:30:34;101308.53;;;10.20;60.82
51496;BME280;37572;52.094;4.870;2023-12-14T02:32:59;101304.91;;;10.21;60.92
51496;BME280;37572;52.094;4.870;2023-12-14T02:35:26;101308.25;;;10.23;60.44
51496;BME280;37572;52.094;4.870;2023-12-14T02:37:51;101315.28;;;10.24;60.88
51496;BME280;37572;52.094;4.870;2023-12-14T02:40:16;101316.94;;;10.25;60.85
51496;BME280;37572;52.094;4.870;2023-12-14T02:42:42;101325.91;;;10.24;61.00
51496;BME280;37572;52.094;4.870;2023-12-14T02:45:08;101325.06;;;10.24;60.74
51496;BME280;37572;52.094;4.870;2023-12-14T02:47:34;101328.56;;;10.24;61.00
51496;BME280;37572;52.094;4.870;2023-12-14T02:49:59;101325.75;;;10.26;60.64
51496;BME280;37572;52.094;4.870;2023-12-14T02:52:24;101338.22;;;10.25;60.72
51496;BME280;37572;52.094;4.870;2023-12-14T02:54:50;101333.03;;;10.24;60.67
51496;BME280;37572;52.094;4.870;2023-12-14T02:57:15;101340.19;;;10.23;60.81
51496;BME280;37572;52.094;4.870;2023-12-14T02:59:40;101341.03;;;10.24;60.82
51496;BME280;37572;52.094;4.870;2023-12-14T03:02:05;101336.56;;;10.24;60.60
51496;BME280;37572;52.094;4.870;2023-12-14T03:04:31;101344.53;;;10.24;60.62
51496;BME280;37572;52.094;4.870;2023-12-14T03:06:57;101345.38;;;10.25;60.63
51496;BME280;37572;52.094;4.870;2023-12-14T03:09:22;101340.19;;;10.23;60.57
51496;BME280;37572;52.094;4.870;2023-12-14T03:11:48;101339.38;;;10.23;60.42
51496;BME280;37572;52.094;4.870;2023-12-14T03:14:13;101342.16;;;10.21;60.44
51496;BME280;37572;52.094;4.870;2023-12-14T03:16:39;101346.94;;;10.17;60.47
51496;BME280;37572;52.094;4.870;2023-12-14T03:19:04;101348.03;;;10.15;60.41
51496;BME280;37572;52.094;4.870;2023-12-14T03:21:30;101345.94;;;10.09;60.27
51496;BME280;37572;52.094;4.870;2023-12-14T03:23:56;101351.53;;;10.06;60.50
51496;BME280;37572;52.094;4.870;2023-12-14T03:26:21;101345.50;;;10.04;60.31
51496;BME280;37572;52.094;4.870;2023-12-14T03:28:46;101353.63;;;10.02;60.40
51496;BME280;37572;52.094;4.870;2023-12-14T03:31:12;101353.75;;;10.00;60.45
51496;BME280;37572;52.094;4.870;2023-12-14T03:33:42;101351.25;;;9.99;60.25
51496;BME280;37572;52.094;4.870;2023-12-14T03:36:07;101363.84;;;9.97;60.23
51496;BME280;37572;52.094;4.870;2023-12-14T03:38:33;101358.66;;;9.95;60.32
51496;BME280;37572;52.094;4.870;2023-12-14T03:40:58;101356.00;;;9.95;60.37
51496;BME280;37572;52.094;4.870;2023-12-14T03:43:23;101358.66;;;9.95;60.50
51496;BME280;37572;52.094;4.870;2023-12-14T03:45:49;101357.69;;;9.96;60.18
51496;BME280;37572;52.094;4.870;2023-12-14T03:48:14;101366.66;;;9.95;60.26
51496;BME280;37572;52.094;4.870;2023-12-14T03:50:40;101372.09;;;9.94;60.20
51496;BME280;37572;52.094;4.870;2023-12-14T03:53:05;101376.47;;;9.95;60.14
51496;BME280;37572;52.094;4.870;2023-12-14T03:55:31;101373.81;;;9.95;60.24
51496;BME280;37572;52.094;4.870;2023-12-14T03:57:56;101384.31;;;9.96;60.12
51496;BME280;37572;52.094;4.870;2023-12-14T04:00:21;101385.97;;;9.97;60.20
51496;BME280;37572;52.094;4.870;2023-12-14T04:02:47;101395.66;;;9.98;59.96
51496;BME280;37572;52.094;4.870;2023-12-14T04:05:12;101392.97;;;9.98;60.06
51496;BME280;37572;52.094;4.870;2023-12-14T04:07:39;101394.81;;;9.98;59.99
51496;BME280;37572;52.094;4.870;2023-12-14T04:10:14;101405.47;;;9.98;59.86
51496;BME280;37572;52.094;4.870;2023-12-14T04:12:40;101407.41;;;9.96;59.69
51496;BME280;37572;52.094;4.870;2023-12-14T04:15:07;101412.16;;;9.92;60.07
51496;BME280;37572;52.094;4.870;2023-12-14T04:17:33;101415.81;;;9.91;59.79
51496;BME280;37572;52.094;4.870;2023-12-14T04:19:59;101423.94;;;9.90;59.57
51496;BME280;37572;52.094;4.870;2023-12-14T04:22:26;101420.69;;;9.86;59.41
51496;BME280;37572;52.094;4.870;2023-12-14T04:24:51;101431.59;;;9.83;59.38
51496;BME280;37572;52.094;4.870;2023-12-14T04:27:16;101429.09;;;9.81;59.52
51496;BME280;37572;52.094;4.870;2023-12-14T04:29:42;101429.22;;;9.80;58.83
51496;BME280;37572;52.094;4.870;2023-12-14T04:32:07;101433.84;;;9.78;59.26
51496;BME280;37572;52.094;4.870;2023-12-14T04:34:33;101433.84;;;9.78;59.42
51496;BME280;37572;52.094;4.870;2023-12-14T04:36:58;101440.25;;;9.75;59.29
51496;BME280;37572;52.094;4.870;2023-12-14T04:39:24;101447.53;;;9.73;59.20
51496;BME280;37572;52.094;4.870;2023-12-14T04:41:52;101461.66;;;9.74;59.05
51496;BME280;37572;52.094;4.870;2023-12-14T04:44:21;101467.00;;;9.74;58.56
51496;BME280;37572;52.094;4.870;2023-12-14T04:46:47;101475.09;;;9.72;59.17
51496;BME280;37572;52.094;4.870;2023-12-14T04:49:13;101481.28;;;9.73;59.12
51496;BME280;37572;52.094;4.870;2023-12-14T04:51:38;101500.59;;;9.75;59.20
51496;BME280;37572;52.094;4.870;2023-12-14T04:54:03;101495.28;;;9.75;59.08
51496;BME280;37572;52.094;4.870;2023-12-14T04:56:29;101503.97;;;9.77;59.00
51496;BME280;37572;52.094;4.870;2023-12-14T04:58:54;101510.97;;;9.78;59.02
51496;BME280;37572;52.094;4.870;2023-12-14T05:01:20;101515.31;;;9.79;59.01
51496;BME280;37572;52.094;4.870;2023-12-14T05:03:45;101519.66;;;9.80;59.08
51496;BME280;37572;52.094;4.870;2023-12-14T05:06:10;101514.47;;;9.78;58.97
51496;BME280;37572;52.094;4.870;2023-12-14T05:08:36;101528.59;;;9.79;59.01
51496;BME280;37572;52.094;4.870;2023-12-14T05:11:01;101531.38;;;9.77;58.84
51496;BME280;37572;52.094;4.870;2023-12-14T05:13:26;101537.72;;;9.76;58.95
51496;BME280;37572;52.094;4.870;2023-12-14T05:15:51;101541.59;;;9.72;58.91
51496;BME280;37572;52.094;4.870;2023-12-14T05:18:17;101547.03;;;9.71;58.86
51496;BME280;37572;52.094;4.870;2023-12-14T05:20:43;101552.66;;;9.68;58.77
51496;BME280;37572;52.094;4.870;2023-12-14T05:23:09;101552.66;;;9.68;58.72
51496;BME280;37572;52.094;4.870;2023-12-14T05:25:35;101555.44;;;9.66;58.94
51496;BME280;37572;52.094;4.870;2023-12-14T05:28:00;101560.75;;;9.66;58.83
51496;BME280;37572;52.094;4.870;2023-12-14T05:30:25;101566.22;;;9.65;58.82
51496;BME280;37572;52.094;4.870;2023-12-14T05:32:50;101576.84;;;9.65;58.79
51496;BME280;37572;52.094;4.870;2023-12-14T05:35:16;101573.31;;;9.64;58.84
51496;BME280;37572;52.094;4.870;2023-12-14T05:37:41;101574.19;;;9.65;58.71
51496;BME280;37572;52.094;4.870;2023-12-14T05:40:07;101568.88;;;9.65;58.86
51496;BME280;37572;52.094;4.870;2023-12-14T05:42:33;101577.56;;;9.67;58.69
51496;BME280;37572;52.094;4.870;2023-12-14T05:44:58;101579.94;;;9.70;58.66
51496;BME280;37572;52.094;4.870;2023-12-14T05:47:26;101582.47;;;9.71;58.52
51496;BME280;37572;52.094;4.870;2023-12-14T05:49:51;101591.16;;;9.73;58.69
51496;BME280;37572;52.094;4.870;2023-12-14T05:52:16;101593.00;;;9.73;58.45
51496;BME280;37572;52.094;4.870;2023-12-14T05:54:42;101583.31;;;9.72;58.14
51496;BME280;37572;52.094;4.870;2023-12-14T05:57:07;101595.78;;;9.71;58.03
51496;BME280;37572;52.094;4.870;2023-12-14T05:59:32;101603.88;;;9.70;57.93
51496;BME280;37572;52.094;4.870;2023-12-14T06:01:59;101606.09;;;9.65;57.71
51496;BME280;37572;52.094;4.870;2023-12-14T06:04:26;101603.81;;;9.60;57.69
51496;BME280;37572;52.094;4.870;2023-12-14T06:06:52;101608.56;;;9.56;57.84
51496;BME280;37572;52.094;4.870;2023-12-14T06:09:18;101609.66;;;9.54;57.68
51496;BME280;37572;52.094;4.870;2023-12-14T06:11:47;101611.88;;;9.49;57.99
51496;BME280;37572;52.094;4.870;2023-12-14T06:14:12;101616.47;;;9.47;57.72
51496;BME280;37572;52.094;4.870;2023-12-14T06:16:37;101621.09;;;9.44;57.81
51496;BME280;37572;52.094;4.870;2023-12-14T06:19:03;101619.50;;;9.42;57.91
51496;BME280;37572;52.094;4.870;2023-12-14T06:21:28;101634.63;;;9.41;58.12
51496;BME280;37572;52.094;4.870;2023-12-14T06:23:55;101638.97;;;9.42;58.11
51496;BME280;37572;52.094;4.870;2023-12-14T06:26:20;101648.38;;;9.47;58.20
51496;BME280;37572;52.094;4.870;2023-12-14T06:28:46;101645.59;;;9.48;58.12
51496;BME280;37572;52.094;4.870;2023-12-14T06:31:15;101655.13;;;9.51;57.89
51496;BME280;37572;52.094;4.870;2023-12-14T06:33:41;101653.31;;;9.51;57.95
51496;BME280;37572;52.094;4.870;2023-12-14T06:36:09;101657.66;;;9.52;57.93
51496;BME280;37572;52.094;4.870;2023-12-14T06:38:38;101673.59;;;9.52;58.03
51496;BME280;37572;52.094;4.870;2023-12-14T06:41:03;101691.38;;;9.52;58.10
51496;BME280;37572;52.094;4.870;2023-12-14T06:43:29;101688.72;;;9.52;58.05
51496;BME280;37572;52.094;4.870;2023-12-14T06:45:54;101701.31;;;9.50;57.88
51496;BME280;37572;52.094;4.870;2023-12-14T06:48:20;101708.41;;;9.49;57.97
51496;BME280;37572;52.094;4.870;2023-12-14T06:50:45;101703.09;;;9.49;57.92
51496;BME280;37572;52.094;4.870;2023-12-14T06:53:10;101709.28;;;9.50;58.16
51496;BME280;37572;52.094;4.870;2023-12-14T06:55:36;101710.13;;;9.50;58.02
51496;BME280;37572;52.094;4.870;2023-12-14T06:58:01;101709.03;;;9.53;58.19
51496;BME280;37572;52.094;4.870;2023-12-14T07:00:26;101714.34;;;9.53;58.11
51496;BME280;37572;52.094;4.870;2023-12-14T07:02:52;101721.47;;;9.52;58.17
51496;BME280;37572;52.094;4.870;2023-12-14T07:05:17;101724.25;;;9.51;58.35
51496;BME280;37572;52.094;4.870;2023-12-14T07:07:43;101738.41;;;9.51;58.24
51496;BME280;37572;52.094;4.870;2023-12-14T07:10:08;101734.75;;;9.52;58.07
51496;BME280;37572;52.094;4.870;2023-12-14T07:12:34;101736.47;;;9.53;57.59
51496;BME280;37572;52.094;4.870;2023-12-14T07:15:00;101736.13;;;9.47;57.81
51496;BME280;37572;52.094;4.870;2023-12-14T07:17:25;101742.53;;;9.44;57.71
51496;BME280;37572;52.094;4.870;2023-12-14T07:19:51;101744.47;;;9.42;57.59
51496;BME280;37572;52.094;4.870;2023-12-14T07:22:17;101736.84;;;9.37;57.20
51496;BME280;37572;52.094;4.870;2023-12-14T07:24:42;101739.66;;;9.36;57.33
51496;BME280;37572;52.094;4.870;2023-12-14T07:27:07;101744.38;;;9.32;57.48
51496;BME280;37572;52.094;4.870;2023-12-14T07:29:32;101748.03;;;9.31;57.39
51496;BME280;37572;52.094;4.870;2023-12-14T07:31:58;101755.00;;;9.32;57.48
51496;BME280;37572;52.094;4.870;2023-12-14T07:34:23;101755.88;;;9.33;57.53
51496;BME280;37572;52.094;4.870;2023-12-14T07:36:50;101763.56;;;9.36;57.61
51496;BME280;37572;52.094;4.870;2023-12-14T07:39:15;101773.25;;;9.37;57.60
51496;BME280;37572;52.094;4.870;2023-12-14T07:41:41;101775.78;;;9.38;57.56
51496;BME280;37572;52.094;4.870;2023-12-14T07:44:06;101775.91;;;9.37;57.46
51496;BME280;37572;52.094;4.870;2023-12-14T07:46:32;101782.34;;;9.34;57.77
51496;BME280;37572;52.094;4.870;2023-12-14T07:48:57;101783.16;;;9.35;57.66
51496;BME280;37572;52.094;4.870;2023-12-14T07:51:22;101793.09;;;9.33;57.88
51496;BME280;37572;52.094;4.870;2023-12-14T07:53:47;101793.91;;;9.33;57.53
51496;BME280;37572;52.094;4.870;2023-12-14T07:56:13;101801.91;;;9.33;57.41
51496;BME280;37572;52.094;4.870;2023-12-14T07:58:38;101788.47;;;9.35;57.45
51496;BME280;37572;52.094;4.870;2023-12-14T08:01:03;101789.44;;;9.34;57.30
51496;BME280;37572;52.094;4.870;2023-12-14T08:03:29;101793.81;;;9.35;57.39
51496;BME280;37572;52.094;4.870;2023-12-14T08:05:54;101796.47;;;9.35;57.50
51496;BME280;37572;52.094;4.870;2023-12-14T08:08:20;101790.31;;;9.34;57.53
51496;BME280;37572;52.094;4.870;2023-12-14T08:10:45;101791.97;;;9.35;57.45
51496;BME280;37572;52.094;4.870;2023-12-14T08:13:10;101791.13;;;9.35;57.20
51496;BME280;37572;52.094;4.870;2023-12-14T08:15:36;101796.47;;;9.35;57.26
51496;BME280;37572;52.094;4.870;2023-12-14T08:18:01;101796.47;;;9.35;57.11
51496;BME280;37572;52.094;4.870;2023-12-14T08:20:27;101794.75;;;9.34;57.39
51496;BME280;37572;52.094;4.870;2023-12-14T08:22:52;101801.91;;;9.33;56.95
51496;BME280;37572;52.094;4.870;2023-12-14T08:25:17;101802.03;;;9.32;56.83
51496;BME280;37572;52.094;4.870;2023-12-14T08:27:43;101811.94;;;9.30;56.90
51496;BME280;37572;52.094;4.870;2023-12-14T08:30:12;101819.91;;;9.30;56.99
51496;BME280;37572;52.094;4.870;2023-12-14T08:32:37;101818.22;;;9.29;56.81
51496;BME280;37572;52.094;4.870;2023-12-14T08:35:03;101828.84;;;9.29;56.74
51496;BME280;37572;52.094;4.870;2023-12-14T08:37:29;101837.66;;;9.29;56.65
51496;BME280;37572;52.094;4.870;2023-12-14T08:39:54;101839.47;;;9.29;56.63
51496;BME280;37572;52.094;4.870;2023-12-14T08:42:20;101843.84;;;9.30;56.50
51496;BME280;37572;52.094;4.870;2023-12-14T08:44:46;101848.28;;;9.29;56.33
51496;BME280;37572;52.094;4.870;2023-12-14T08:47:11;101850.09;;;9.29;56.29
51496;BME280;37572;52.094;4.870;2023-12-14T08:49:36;101858.09;;;9.29;56.51
51496;BME280;37572;52.094;4.870;2023-12-14T08:52:02;101873.06;;;9.30;56.32
51496;BME280;37572;52.094;4.870;2023-12-14T08:54:29;101873.66;;;9.22;56.19
51496;BME280;37572;52.094;4.870;2023-12-14T08:56:54;101880.22;;;9.18;56.28
51496;BME280;37572;52.094;4.870;2023-12-14T08:59:19;101878.50;;;9.17;56.57
51496;BME280;37572;52.094;4.870;2023-12-14T09:01:45;101880.81;;;9.21;56.89
51496;BME280;37572;52.094;4.870;2023-12-14T09:04:11;101889.16;;;9.28;56.94
51496;BME280;37572;52.094;4.870;2023-12-14T09:06:36;101884.91;;;9.37;56.98
51496;BME280;37572;52.094;4.870;2023-12-14T09:09:01;101894.53;;;9.49;57.18
51496;BME280;37572;52.094;4.870;2023-12-14T09:11:27;101907.59;;;9.63;57.33
51496;BME280;37572;52.094;4.870;2023-12-14T09:13:53;101914.44;;;9.77;57.47
51496;BME280;37572;52.094;4.870;2023-12-14T09:16:18;101922.16;;;9.92;57.39
51496;BME280;37572;52.094;4.870;2023-12-14T09:18:44;101926.22;;;10.07;57.50
51496;BME280;37572;52.094;4.870;2023-12-14T09:21:09;101927.53;;;10.24;57.60
51496;BME280;37572;52.094;4.870;2023-12-14T09:23:34;101930.63;;;10.41;57.60
51496;BME280;37572;52.094;4.870;2023-12-14T09:25:59;101930.06;;;10.58;57.73
51496;BME280;37572;52.094;4.870;2023-12-14T09:28:25;101928.19;;;10.70;57.56
51496;BME280;37572;52.094;4.870;2023-12-14T09:30:51;101934.28;;;10.82;57.55
51496;BME280;37572;52.094;4.870;2023-12-14T09:33:17;101926.22;;;10.93;57.51
51496;BME280;37572;52.094;4.870;2023-12-14T09:35:42;101929.91;;;11.02;57.25
51496;BME280;37572;52.094;4.870;2023-12-14T09:38:08;101930.22;;;11.08;57.19
51496;BME280;37572;52.094;4.870;2023-12-14T09:40:34;101936.88;;;11.14;56.94
51496;BME280;37572;52.094;4.870;2023-12-14T09:43:00;101939.00;;;11.20;56.66
51496;BME280;37572;52.094;4.870;2023-12-14T09:45:29;101948.16;;;11.27;56.44
51496;BME280;37572;52.094;4.870;2023-12-14T09:47:59;101949.84;;;11.28;56.22
51496;BME280;37572;52.094;4.870;2023-12-14T09:50:25;101953.94;;;11.33;56.11
51496;BME280;37572;52.094;4.870;2023-12-14T09:52:50;101959.97;;;11.35;56.04
51496;BME280;37572;52.094;4.870;2023-12-14T09:55:16;101963.75;;;11.32;55.74
51496;BME280;37572;52.094;4.870;2023-12-14T09:57:41;101974.53;;;11.30;55.49
51496;BME280;37572;52.094;4.870;2023-12-14T10:00:08;101968.38;;;11.30;55.61
51496;BME280;37572;52.094;4.870;2023-12-14T10:02:39;101970.34;;;11.28;55.42
51496;BME280;37572;52.094;4.870;2023-12-14T10:05:08;101975.09;;;11.24;55.41
51496;BME280;37572;52.094;4.870;2023-12-14T10:07:41;101977.19;;;11.21;55.41
51496;BME280;37572;52.094;4.870;2023-12-14T10:10:13;101974.78;;;11.18;55.25
51496;BME280;37572;52.094;4.870;2023-12-14T10:12:53;101983.88;;;11.15;55.33
51496;BME280;37572;52.094;4.870;2023-12-14T10:15:18;101984.25;;;11.10;55.40
51496;BME280;37572;52.094;4.870;2023-12-14T10:17:44;101985.38;;;11.08;55.57
51496;BME280;37572;52.094;4.870;2023-12-14T10:20:09;101978.34;;;11.07;55.52
51496;BME280;37572;52.094;4.870;2023-12-14T10:22:35;101982.84;;;11.06;55.92
51496;BME280;37572;52.094;4.870;2023-12-14T10:25:02;101985.38;;;11.08;55.84
51496;BME280;37572;52.094;4.870;2023-12-14T10:27:28;101986.91;;;11.10;55.72
51496;BME280;37572;52.094;4.870;2023-12-14T10:29:56;101991.16;;;11.13;55.82
51496;BME280;37572;52.094;4.870;2023-12-14T10:32:22;101989.06;;;11.17;55.80
51496;BME280;37572;52.094;4.870;2023-12-14T10:34:48;101997.66;;;11.20;55.99
51496;BME280;37572;52.094;4.870;2023-12-14T10:37:13;102001.75;;;11.24;56.01
51496;BME280;37572;52.094;4.870;2023-12-14T10:39:42;102007.28;;;11.33;56.24
51496;BME280;37572;52.094;4.870;2023-12-14T10:42:08;102002.69;;;11.44;56.17
51496;BME280;37572;52.094;4.870;2023-12-14T10:44:36;102004.03;;;11.60;55.96
51496;BME280;37572;52.094;4.870;2023-12-14T10:47:02;102009.00;;;11.74;55.56
51496;BME280;37572;52.094;4.870;2023-12-14T10:49:29;102013.78;;;11.80;55.54
51496;BME280;37572;52.094;4.870;2023-12-14T10:51:56;102008.19;;;11.83;55.21
51496;BME280;37572;52.094;4.870;2023-12-14T10:54:24;102008.88;;;11.85;55.12
51496;BME280;37572;52.094;4.870;2023-12-14T10:56:50;102013.41;;;11.85;54.85
51496;BME280;37572;52.094;4.870;2023-12-14T10:59:19;102015.22;;;11.84;55.06
51496;BME280;37572;52.094;4.870;2023-12-14T11:01:44;102008.75;;;11.87;55.05
51496;BME280;37572;52.094;4.870;2023-12-14T11:04:10;102009.94;;;11.94;55.07
51496;BME280;37572;52.094;4.870;2023-12-14T11:06:39;102013.78;;;12.11;54.45
51496;BME280;37572;52.094;4.870;2023-12-14T11:09:06;102014.53;;;12.33;54.19
51496;BME280;37572;52.094;4.870;2023-12-14T11:11:56;102021.97;;;12.49;53.86
51496;BME280;37572;52.094;4.870;2023-12-14T11:14:22;102026.66;;;12.56;53.61
51496;BME280;37572;52.094;4.870;2023-12-14T11:16:48;102034.38;;;12.59;53.15
51496;BME280;37572;52.094;4.870;2023-12-14T11:24:20;102029.56;;;12.34;52.85
51496;BME280;37572;52.094;4.870;2023-12-14T11:26:45;102033.63;;;12.28;52.64
51496;BME280;37572;52.094;4.870;2023-12-14T11:29:11;102035.19;;;12.21;52.81
51496;BME280;37572;52.094;4.870;2023-12-14T11:31:37;102042.03;;;12.14;52.92
51496;BME280;37572;52.094;4.870;2023-12-14T11:34:02;102041.47;;;12.10;52.94
51496;BME280;37572;52.094;4.870;2023-12-14T11:36:29;102042.59;;;12.08;53.24
51496;BME280;37572;52.094;4.870;2023-12-14T11:38:54;102043.81;;;12.03;53.20
51496;BME280;37572;52.094;4.870;2023-12-14T11:41:23;102055.63;;;12.01;53.14
51496;BME280;37572;52.094;4.870;2023-12-14T11:43:51;102052.09;;;12.00;53.09
51496;BME280;37572;52.094;4.870;2023-12-14T11:46:16;102048.72;;;11.98;53.16
51496;BME280;37572;52.094;4.870;2023-12-14T11:48:46;102056.16;;;11.95;53.04
51496;BME280;37572;52.094;4.870;2023-12-14T11:51:11;102053.16;;;11.88;53.11
51496;BME280;37572;52.094;4.870;2023-12-14T11:53:37;102057.94;;;11.84;52.86
51496;BME280;37572;52.094;4.870;2023-12-14T11:56:04;102065.06;;;11.74;52.33
51496;BME280;37572;52.094;4.870;2023-12-14T11:58:31;102065.72;;;11.66;52.51
51496;BME280;37572;52.094;4.870;2023-12-14T12:01:11;102064.44;;;11.61;52.67
51496;BME280;37572;52.094;4.870;2023-12-14T12:03:36;102058.66;;;11.56;52.52
51496;BME280;37572;52.094;4.870;2023-12-14T12:06:02;102055.50;;;11.51;52.58
51496;BME280;37572;52.094;4.870;2023-12-14T12:08:27;102061.84;;;11.50;53.00
51496;BME280;37572;52.094;4.870;2023-12-14T12:10:53;102074.03;;;11.52;53.01
51496;BME280;37572;52.094;4.870;2023-12-14T12:13:20;102079.25;;;11.54;53.01
51496;BME280;37572;52.094;4.870;2023-12-14T12:15:46;102074.91;;;11.53;53.02
51496;BME280;37572;52.094;4.870;2023-12-14T12:18:13;102075.03;;;11.51;52.82
51496;BME280;37572;52.094;4.870;2023-12-14T12:20:39;102072.06;;;11.44;52.24
51496;BME280;37572;52.094;4.870;2023-12-14T12:23:05;102086.03;;;11.37;52.26
51496;BME280;37572;52.094;4.870;2023-12-14T12:25:31;102070.66;;;11.29;52.34
51496;BME280;37572;52.094;4.870;2023-12-14T12:27:58;102071.09;;;11.24;52.56
51496;BME280;37572;52.094;4.870;2023-12-14T12:30:23;102072.44;;;11.19;52.59
51496;BME280;37572;52.094;4.870;2023-12-14T12:32:49;102073.81;;;11.13;52.39
51496;BME280;37572;52.094;4.870;2023-12-14T12:35:17;102075.03;;;11.09;52.79
51496;BME280;37572;52.094;4.870;2023-12-14T12:37:42;102061.97;;;11.06;52.65
51496;BME280;37572;52.094;4.870;2023-12-14T12:40:09;102061.34;;;11.02;52.55
51496;BME280;37572;52.094;4.870;2023-12-14T12:42:34;102066.22;;;10.97;52.75
51496;BME280;37572;52.094;4.870;2023-12-14T12:44:59;102067.59;;;10.91;52.54
51496;BME280;37572;52.094;4.870;2023-12-14T12:47:25;102065.31;;;10.87;52.68
51496;BME280;37572;52.094;4.870;2023-12-14T12:49:51;102071.75;;;10.84;52.52
51496;BME280;37572;52.094;4.870;2023-12-14T12:52:16;102071.75;;;10.84;52.60
51496;BME280;37572;52.094;4.870;2023-12-14T12:54:41;102080.59;;;10.85;52.73